Long Crendon, United Kingdom
Current Conditions -  °F | °C
As of 9:50 PM on Sunday 23 Nov 2014 (Local Time) from EGUB Reporting Station
Clear Clear  
Wind Chill: 32°   Ceiling: Unl
Heat Index: 32°   Visibility: 0.43mi
Dew Point: 32°   Wind: 1mph
Humidity: 100%   Direction: 90°E
Pressure: 30.15"   Gusts: NA
Location:  51.77°N, 1°W
Report Text: EGUB 232150Z AUTO 09001KT 0700 // NCD M00/M00 Q1021
Loading
Personal Weather Stations






























Interactive Weather Map New forecast layout! Learn more

10-Day Weather Forecast

Advertisements
Track Severe Weather on mobile